< < Back
Terminal Aerodrome Forecast


Current Version              Previous Versions:   1  2  3  4  5  6  7  8  9  

Terminal Aerodrome Forecast

376
FTUS42 KCHS 280520
TAFCHS
TAF
KCHS 280520Z 2806/2906 33007KT P6SM SCT015 BKN050
     FM281500 31011KT P6SM SCT050
     FM282330 33003KT P6SM SKC=

Latest METAR

641
SAUS80 KWBC 281200 RRC
MTRCHS
METAR KCHS 281156Z 29005KT 10SM FEW060 07/05 A3001 RMK AO2 SLP163 70013
T00670050 10083 20056 53023


USA.gov is the U.S. government's official web portal to all federal, state and local government web resources and services.